sensor_id;sensor_type;location;lat;lon;timestamp;pressure;altitude;pressure_sealevel;temperature;humidity
12471;BME280;36499;46.484;13.832;2023-04-20T00:00:02;92789.81;;;9.39;91.57
12471;BME280;36499;46.484;13.832;2023-04-20T00:02:35;92787.97;;;9.46;91.17
12471;BME280;36499;46.484;13.832;2023-04-20T00:05:03;92788.78;;;9.40;91.40
12471;BME280;36499;46.484;13.832;2023-04-20T00:07:30;92777.38;;;9.41;91.48
12471;BME280;36499;46.484;13.832;2023-04-20T00:09:57;92779.56;;;9.44;91.60
12471;BME280;36499;46.484;13.832;2023-04-20T00:12:24;92778.38;;;9.40;92.04
12471;BME280;36499;46.484;13.832;2023-04-20T00:14:52;92778.00;;;9.43;91.51
12471;BME280;36499;46.484;13.832;2023-04-20T00:17:21;92774.78;;;9.41;91.58
12471;BME280;36499;46.484;13.832;2023-04-20T00:19:48;92775.78;;;9.40;90.81
12471;BME280;36499;46.484;13.832;2023-04-20T00:22:15;92780.41;;;9.38;90.67
12471;BME280;36499;46.484;13.832;2023-04-20T00:24:42;92775.41;;;9.37;91.19
12471;BME280;36499;46.484;13.832;2023-04-20T00:27:09;92775.22;;;9.38;91.33
12471;BME280;36499;46.484;13.832;2023-04-20T00:29:36;92773.56;;;9.44;90.67
12471;BME280;36499;46.484;13.832;2023-04-20T00:32:04;92766.03;;;9.36;90.65
12471;BME280;36499;46.484;13.832;2023-04-20T00:34:32;92774.34;;;9.44;90.39
12471;BME280;36499;46.484;13.832;2023-04-20T00:36:59;92770.75;;;9.45;90.40
12471;BME280;36499;46.484;13.832;2023-04-20T00:39:26;92769.16;;;9.44;89.65
12471;BME280;36499;46.484;13.832;2023-04-20T00:41:53;92760.53;;;9.44;89.55
12471;BME280;36499;46.484;13.832;2023-04-20T00:44:21;92763.50;;;9.47;89.67
12471;BME280;36499;46.484;13.832;2023-04-20T00:46:48;92764.97;;;9.43;89.95
12471;BME280;36499;46.484;13.832;2023-04-20T00:49:18;92764.19;;;9.43;90.14
12471;BME280;36499;46.484;13.832;2023-04-20T00:51:47;92761.59;;;9.43;90.66
12471;BME280;36499;46.484;13.832;2023-04-20T00:54:14;92759.97;;;9.42;90.40
12471;BME280;36499;46.484;13.832;2023-04-20T00:56:41;92751.81;;;9.38;89.99
12471;BME280;36499;46.484;13.832;2023-04-20T00:59:09;92759.50;;;9.27;90.33
12471;BME280;36499;46.484;13.832;2023-04-20T01:01:36;92757.78;;;9.21;90.03
12471;BME280;36499;46.484;13.832;2023-04-20T01:04:03;92763.38;;;9.18;90.29
12471;BME280;36499;46.484;13.832;2023-04-20T01:06:32;92756.16;;;9.20;89.78
12471;BME280;36499;46.484;13.832;2023-04-20T01:09:00;92762.56;;;9.17;90.17
12471;BME280;36499;46.484;13.832;2023-04-20T01:11:27;92762.63;;;9.10;90.51
12471;BME280;36499;46.484;13.832;2023-04-20T01:13:54;92758.03;;;9.12;90.19
12471;BME280;36499;46.484;13.832;2023-04-20T01:16:22;92753.72;;;9.00;90.90
12471;BME280;36499;46.484;13.832;2023-04-20T01:18:50;92766.28;;;9.03;90.79
12471;BME280;36499;46.484;13.832;2023-04-20T01:21:19;92764.31;;;8.98;91.30
12471;BME280;36499;46.484;13.832;2023-04-20T01:23:48;92763.47;;;9.04;91.31
12471;BME280;36499;46.484;13.832;2023-04-20T01:26:18;92762.06;;;9.08;91.30
12471;BME280;36499;46.484;13.832;2023-04-20T01:28:46;92761.94;;;8.97;91.26
12471;BME280;36499;46.484;13.832;2023-04-20T01:31:13;92759.47;;;9.02;91.62
12471;BME280;36499;46.484;13.832;2023-04-20T01:33:40;92752.09;;;8.99;91.70
12471;BME280;36499;46.484;13.832;2023-04-20T01:36:08;92758.72;;;8.95;92.01
12471;BME280;36499;46.484;13.832;2023-04-20T01:38:36;92753.22;;;8.85;91.68
12471;BME280;36499;46.484;13.832;2023-04-20T01:41:06;92749.81;;;8.84;92.48
12471;BME280;36499;46.484;13.832;2023-04-20T01:43:35;92756.75;;;8.90;91.99
12471;BME280;36499;46.484;13.832;2023-04-20T01:46:04;92751.59;;;8.84;92.42
12471;BME280;36499;46.484;13.832;2023-04-20T01:48:32;92754.00;;;8.85;91.85
12471;BME280;36499;46.484;13.832;2023-04-20T01:50:59;92751.47;;;8.79;92.40
12471;BME280;36499;46.484;13.832;2023-04-20T01:53:26;92749.88;;;8.78;92.59
12471;BME280;36499;46.484;13.832;2023-04-20T01:55:53;92747.22;;;8.84;92.24
12471;BME280;36499;46.484;13.832;2023-04-20T01:58:22;92750.06;;;8.76;91.90
12471;BME280;36499;46.484;13.832;2023-04-20T02:00:49;92740.28;;;8.78;91.77
12471;BME280;36499;46.484;13.832;2023-04-20T02:03:16;92740.88;;;8.74;92.34
12471;BME280;36499;46.484;13.832;2023-04-20T02:05:43;92742.88;;;8.72;92.40
12471;BME280;36499;46.484;13.832;2023-04-20T02:08:10;92739.53;;;8.71;92.89
12471;BME280;36499;46.484;13.832;2023-04-20T02:10:37;92729.75;;;8.66;92.67
12471;BME280;36499;46.484;13.832;2023-04-20T02:13:04;92739.72;;;8.70;92.21
12471;BME280;36499;46.484;13.832;2023-04-20T02:15:33;92743.75;;;8.65;92.63
12471;BME280;36499;46.484;13.832;2023-04-20T02:18:00;92740.72;;;8.68;92.43
12471;BME280;36499;46.484;13.832;2023-04-20T02:20:28;92745.41;;;8.53;93.04
12471;BME280;36499;46.484;13.832;2023-04-20T02:22:55;92743.38;;;8.62;92.52
12471;BME280;36499;46.484;13.832;2023-04-20T02:25:22;92747.94;;;8.60;92.58
12471;BME280;36499;46.484;13.832;2023-04-20T02:27:49;92741.34;;;8.64;92.28
12471;BME280;36499;46.484;13.832;2023-04-20T02:30:16;92750.34;;;8.61;92.19
12471;BME280;36499;46.484;13.832;2023-04-20T02:32:45;92746.94;;;8.61;91.77
12471;BME280;36499;46.484;13.832;2023-04-20T02:35:12;92743.19;;;8.57;92.29
12471;BME280;36499;46.484;13.832;2023-04-20T02:37:39;92746.00;;;8.55;92.69
12471;BME280;36499;46.484;13.832;2023-04-20T02:40:07;92744.41;;;8.54;92.17
12471;BME280;36499;46.484;13.832;2023-04-20T02:42:35;92744.66;;;8.46;92.41
12471;BME280;36499;46.484;13.832;2023-04-20T02:45:02;92745.88;;;8.44;92.45
12471;BME280;36499;46.484;13.832;2023-04-20T02:47:30;92744.66;;;8.46;92.38
12471;BME280;36499;46.484;13.832;2023-04-20T02:49:58;92735.91;;;8.41;92.00
12471;BME280;36499;46.484;13.832;2023-04-20T02:52:25;92749.31;;;8.31;92.27
12471;BME280;36499;46.484;13.832;2023-04-20T02:54:52;92747.09;;;8.28;92.25
12471;BME280;36499;46.484;13.832;2023-04-20T02:57:19;92749.50;;;8.30;92.22
12471;BME280;36499;46.484;13.832;2023-04-20T02:59:46;92747.91;;;8.22;92.87
12471;BME280;36499;46.484;13.832;2023-04-20T03:02:13;92738.34;;;8.23;92.66
12471;BME280;36499;46.484;13.832;2023-04-20T03:04:41;92743.53;;;8.23;92.89
12471;BME280;36499;46.484;13.832;2023-04-20T03:07:09;92744.94;;;8.25;92.36
12471;BME280;36499;46.484;13.832;2023-04-20T03:09:36;92742.16;;;8.20;93.07
12471;BME280;36499;46.484;13.832;2023-04-20T03:12:04;92733.94;;;8.23;92.52
12471;BME280;36499;46.484;13.832;2023-04-20T03:14:31;92734.34;;;8.20;92.77
12471;BME280;36499;46.484;13.832;2023-04-20T03:16:58;92741.53;;;8.18;92.81
12471;BME280;36499;46.484;13.832;2023-04-20T03:19:26;92744.53;;;8.22;92.72
12471;BME280;36499;46.484;13.832;2023-04-20T03:21:53;92747.91;;;8.22;92.74
12471;BME280;36499;46.484;13.832;2023-04-20T03:24:21;92749.59;;;8.10;92.94
12471;BME280;36499;46.484;13.832;2023-04-20T03:26:49;92743.22;;;8.06;92.77
12471;BME280;36499;46.484;13.832;2023-04-20T03:29:16;92748.94;;;8.21;92.79
12471;BME280;36499;46.484;13.832;2023-04-20T03:31:43;92747.44;;;8.45;91.09
12471;BME280;36499;46.484;13.832;2023-04-20T03:34:11;92750.81;;;8.52;90.33
12471;BME280;36499;46.484;13.832;2023-04-20T03:36:38;92751.09;;;8.31;90.50
12471;BME280;36499;46.484;13.832;2023-04-20T03:39:05;92747.47;;;8.38;90.64
12471;BME280;36499;46.484;13.832;2023-04-20T03:41:33;92748.47;;;8.44;90.01
12471;BME280;36499;46.484;13.832;2023-04-20T03:44:00;92751.84;;;8.44;90.23
12471;BME280;36499;46.484;13.832;2023-04-20T03:46:27;92751.34;;;8.60;89.44
12471;BME280;36499;46.484;13.832;2023-04-20T03:48:54;92753.28;;;8.40;90.01
12471;BME280;36499;46.484;13.832;2023-04-20T03:51:21;92763.28;;;8.30;90.78
12471;BME280;36499;46.484;13.832;2023-04-20T03:53:48;92761.09;;;8.27;90.93
12471;BME280;36499;46.484;13.832;2023-04-20T03:56:16;92757.91;;;8.25;91.03
12471;BME280;36499;46.484;13.832;2023-04-20T03:58:44;92755.91;;;8.27;90.65
12471;BME280;36499;46.484;13.832;2023-04-20T04:01:11;92762.31;;;8.25;90.86
12471;BME280;36499;46.484;13.832;2023-04-20T04:03:40;92762.38;;;8.05;91.72
12471;BME280;36499;46.484;13.832;2023-04-20T04:06:09;92761.13;;;8.20;91.25
12471;BME280;36499;46.484;13.832;2023-04-20T04:08:36;92760.50;;;8.18;91.22
12471;BME280;36499;46.484;13.832;2023-04-20T04:11:03;92768.31;;;8.18;91.16
12471;BME280;36499;46.484;13.832;2023-04-20T04:13:31;92762.72;;;8.15;91.04
12471;BME280;36499;46.484;13.832;2023-04-20T04:15:59;92768.50;;;8.24;90.50
12471;BME280;36499;46.484;13.832;2023-04-20T04:18:26;92771.50;;;8.20;90.43
12471;BME280;36499;46.484;13.832;2023-04-20T04:20:57;92777.72;;;8.13;90.85
12471;BME280;36499;46.484;13.832;2023-04-20T04:23:24;92780.31;;;8.13;90.53
12471;BME280;36499;46.484;13.832;2023-04-20T04:25:51;92778.16;;;8.10;90.56
12471;BME280;36499;46.484;13.832;2023-04-20T04:28:18;92781.50;;;8.17;90.73
12471;BME280;36499;46.484;13.832;2023-04-20T04:30:46;92783.09;;;8.18;90.47
12471;BME280;36499;46.484;13.832;2023-04-20T04:33:14;92784.75;;;8.06;90.24
12471;BME280;36499;46.484;13.832;2023-04-20T04:35:43;92782.09;;;8.19;90.11
12471;BME280;36499;46.484;13.832;2023-04-20T04:38:11;92786.47;;;8.25;89.96
12471;BME280;36499;46.484;13.832;2023-04-20T04:40:39;92787.09;;;8.20;90.31
12471;BME280;36499;46.484;13.832;2023-04-20T04:43:10;92781.47;;;8.24;89.81
12471;BME280;36499;46.484;13.832;2023-04-20T04:45:37;92787.69;;;8.29;89.87
12471;BME280;36499;46.484;13.832;2023-04-20T04:48:05;92785.09;;;8.16;89.94
12471;BME280;36499;46.484;13.832;2023-04-20T04:50:34;92790.88;;;8.18;90.14
12471;BME280;36499;46.484;13.832;2023-04-20T04:53:01;92787.13;;;8.07;90.23
12471;BME280;36499;46.484;13.832;2023-04-20T04:55:28;92780.75;;;8.10;90.35
12471;BME280;36499;46.484;13.832;2023-04-20T04:57:55;92778.16;;;8.03;90.56
12471;BME280;36499;46.484;13.832;2023-04-20T05:00:23;92791.50;;;8.07;90.72
12471;BME280;36499;46.484;13.832;2023-04-20T05:02:51;92791.75;;;7.99;90.73
12471;BME280;36499;46.484;13.832;2023-04-20T05:05:19;92791.72;;;8.05;90.42
12471;BME280;36499;46.484;13.832;2023-04-20T05:07:47;92803.31;;;7.96;91.08
12471;BME280;36499;46.484;13.832;2023-04-20T05:10:14;92790.16;;;7.98;90.27
12471;BME280;36499;46.484;13.832;2023-04-20T05:12:42;92796.97;;;7.86;91.01
12471;BME280;36499;46.484;13.832;2023-04-20T05:15:09;92799.72;;;8.04;90.50
12471;BME280;36499;46.484;13.832;2023-04-20T05:17:36;92795.72;;;8.08;90.59
12471;BME280;36499;46.484;13.832;2023-04-20T05:20:05;92799.31;;;8.13;90.59
12471;BME280;36499;46.484;13.832;2023-04-20T05:22:35;92802.72;;;8.01;91.21
12471;BME280;36499;46.484;13.832;2023-04-20T05:25:05;92803.88;;;8.11;90.98
12471;BME280;36499;46.484;13.832;2023-04-20T05:27:33;92800.66;;;8.23;90.63
12471;BME280;36499;46.484;13.832;2023-04-20T05:30:01;92804.66;;;8.18;90.74
12471;BME280;36499;46.484;13.832;2023-04-20T05:32:28;92808.28;;;8.11;90.61
12471;BME280;36499;46.484;13.832;2023-04-20T05:34:55;92804.09;;;8.10;89.79
12471;BME280;36499;46.484;13.832;2023-04-20T05:37:23;92808.31;;;7.98;90.85
12471;BME280;36499;46.484;13.832;2023-04-20T05:39:50;92819.44;;;8.18;89.69
12471;BME280;36499;46.484;13.832;2023-04-20T05:42:18;92824.63;;;8.18;89.00
12471;BME280;36499;46.484;13.832;2023-04-20T05:44:45;92826.63;;;8.23;89.01
12471;BME280;36499;46.484;13.832;2023-04-20T05:47:12;92821.44;;;8.29;89.08
12471;BME280;36499;46.484;13.832;2023-04-20T05:49:39;92820.19;;;8.38;89.61
12471;BME280;36499;46.484;13.832;2023-04-20T05:52:06;92817.16;;;8.54;88.69
12471;BME280;36499;46.484;13.832;2023-04-20T05:54:33;92817.72;;;8.56;87.17
12471;BME280;36499;46.484;13.832;2023-04-20T05:57:00;92819.84;;;8.73;86.27
12471;BME280;36499;46.484;13.832;2023-04-20T05:59:31;92825.38;;;8.83;85.74
12471;BME280;36499;46.484;13.832;2023-04-20T06:01:58;92826.56;;;8.93;85.70
12471;BME280;36499;46.484;13.832;2023-04-20T06:04:25;92826.50;;;9.00;85.31
12471;BME280;36499;46.484;13.832;2023-04-20T06:06:52;92830.47;;;9.09;84.28
12471;BME280;36499;46.484;13.832;2023-04-20T06:09:19;92836.31;;;8.98;84.02
12471;BME280;36499;46.484;13.832;2023-04-20T06:11:46;92836.94;;;8.93;84.31
12471;BME280;36499;46.484;13.832;2023-04-20T06:14:13;92831.84;;;8.74;85.45
12471;BME280;36499;46.484;13.832;2023-04-20T06:16:42;92836.28;;;8.66;85.55
12471;BME280;36499;46.484;13.832;2023-04-20T06:19:09;92833.06;;;8.64;86.48
12471;BME280;36499;46.484;13.832;2023-04-20T06:21:36;92842.53;;;8.52;87.90
12471;BME280;36499;46.484;13.832;2023-04-20T06:24:04;92842.94;;;8.49;87.32
12471;BME280;36499;46.484;13.832;2023-04-20T06:26:31;92846.53;;;8.55;87.33
12471;BME280;36499;46.484;13.832;2023-04-20T06:28:58;92844.75;;;8.42;87.93
12471;BME280;36499;46.484;13.832;2023-04-20T06:31:25;92849.75;;;8.44;87.71
12471;BME280;36499;46.484;13.832;2023-04-20T06:33:54;92857.75;;;8.42;87.87
12471;BME280;36499;46.484;13.832;2023-04-20T06:36:21;92855.94;;;8.49;88.13
12471;BME280;36499;46.484;13.832;2023-04-20T06:38:48;92858.97;;;8.33;88.44
12471;BME280;36499;46.484;13.832;2023-04-20T06:41:15;92860.13;;;8.50;88.49
12471;BME280;36499;46.484;13.832;2023-04-20T06:43:42;92860.13;;;8.50;87.91
12471;BME280;36499;46.484;13.832;2023-04-20T06:46:10;92856.91;;;8.55;89.20
12471;BME280;36499;46.484;13.832;2023-04-20T06:48:37;92865.13;;;8.52;89.52
12471;BME280;36499;46.484;13.832;2023-04-20T06:51:05;92868.03;;;8.68;89.72
12471;BME280;36499;46.484;13.832;2023-04-20T06:53:32;92858.03;;;8.79;89.73
12471;BME280;36499;46.484;13.832;2023-04-20T06:56:00;92850.38;;;8.84;89.65
12471;BME280;36499;46.484;13.832;2023-04-20T06:58:27;92852.22;;;8.77;88.81
12471;BME280;36499;46.484;13.832;2023-04-20T07:00:54;92853.06;;;9.02;89.07
12471;BME280;36499;46.484;13.832;2023-04-20T07:03:21;92852.56;;;8.87;86.60
12471;BME280;36499;46.484;13.832;2023-04-20T07:05:48;92851.38;;;8.89;85.33
12471;BME280;36499;46.484;13.832;2023-04-20T07:08:17;92852.38;;;8.88;84.43
12471;BME280;36499;46.484;13.832;2023-04-20T07:10:44;92848.66;;;8.71;82.92
12471;BME280;36499;46.484;13.832;2023-04-20T07:13:11;92858.91;;;8.59;82.26
12471;BME280;36499;46.484;13.832;2023-04-20T07:15:39;92854.84;;;8.70;82.84
12471;BME280;36499;46.484;13.832;2023-04-20T07:18:06;92862.28;;;8.66;82.15
12471;BME280;36499;46.484;13.832;2023-04-20T07:20:33;92860.31;;;8.55;82.22
12471;BME280;36499;46.484;13.832;2023-04-20T07:23:00;92864.28;;;8.58;81.77
12471;BME280;36499;46.484;13.832;2023-04-20T07:25:28;92862.03;;;8.75;82.52
12471;BME280;36499;46.484;13.832;2023-04-20T07:27:56;92876.06;;;8.67;81.82
12471;BME280;36499;46.484;13.832;2023-04-20T07:30:23;92870.25;;;8.65;81.72
12471;BME280;36499;46.484;13.832;2023-04-20T07:32:50;92864.63;;;8.75;82.14
12471;BME280;36499;46.484;13.832;2023-04-20T07:35:17;92874.06;;;8.62;82.21
12471;BME280;36499;46.484;13.832;2023-04-20T07:37:44;92880.84;;;8.70;82.07
12471;BME280;36499;46.484;13.832;2023-04-20T07:40:12;92870.06;;;8.66;83.60
12471;BME280;36499;46.484;13.832;2023-04-20T07:42:40;92868.84;;;8.69;84.63
12471;BME280;36499;46.484;13.832;2023-04-20T07:45:09;92884.00;;;8.79;84.46
12471;BME280;36499;46.484;13.832;2023-04-20T07:47:37;92878.03;;;8.72;85.00
12471;BME280;36499;46.484;13.832;2023-04-20T07:50:06;92875.19;;;8.80;84.17
12471;BME280;36499;46.484;13.832;2023-04-20T07:52:33;92882.53;;;8.96;82.80
12471;BME280;36499;46.484;13.832;2023-04-20T07:55:01;92877.84;;;9.11;81.73
12471;BME280;36499;46.484;13.832;2023-04-20T07:57:28;92887.41;;;9.17;82.30
12471;BME280;36499;46.484;13.832;2023-04-20T07:59:57;92884.91;;;9.35;83.01
12471;BME280;36499;46.484;13.832;2023-04-20T08:02:23;92883.50;;;9.39;82.75
12471;BME280;36499;46.484;13.832;2023-04-20T08:04:50;92885.47;;;9.37;83.59
12471;BME280;36499;46.484;13.832;2023-04-20T08:07:18;92889.41;;;9.15;83.82
12471;BME280;36499;46.484;13.832;2023-04-20T08:09:45;92891.19;;;9.21;82.49
12471;BME280;36499;46.484;13.832;2023-04-20T08:12:12;92886.75;;;9.28;83.98
12471;BME280;36499;46.484;13.832;2023-04-20T08:14:39;92892.06;;;9.08;85.17
12471;BME280;36499;46.484;13.832;2023-04-20T08:17:08;92884.19;;;9.22;83.52
12471;BME280;36499;46.484;13.832;2023-04-20T08:19:35;92895.88;;;9.37;82.14
12471;BME280;36499;46.484;13.832;2023-04-20T08:22:04;92887.91;;;9.32;83.10
12471;BME280;36499;46.484;13.832;2023-04-20T08:24:31;92892.97;;;9.27;81.83
12471;BME280;36499;46.484;13.832;2023-04-20T08:26:58;92893.59;;;9.23;80.77
12471;BME280;36499;46.484;13.832;2023-04-20T08:29:26;92893.75;;;9.28;80.79
12471;BME280;36499;46.484;13.832;2023-04-20T08:31:53;92894.56;;;9.28;80.33
12471;BME280;36499;46.484;13.832;2023-04-20T08:34:21;92892.06;;;9.08;79.29
12471;BME280;36499;46.484;13.832;2023-04-20T08:36:48;92892.66;;;9.10;78.40
12471;BME280;36499;46.484;13.832;2023-04-20T08:39:19;92891.03;;;9.09;77.61
12471;BME280;36499;46.484;13.832;2023-04-20T08:41:49;92888.19;;;9.24;78.12
12471;BME280;36499;46.484;13.832;2023-04-20T08:44:18;92891.59;;;9.18;77.85
12471;BME280;36499;46.484;13.832;2023-04-20T08:46:47;92897.41;;;9.20;79.65
12471;BME280;36499;46.484;13.832;2023-04-20T08:49:16;92896.31;;;9.34;79.78
12471;BME280;36499;46.484;13.832;2023-04-20T08:51:47;92891.53;;;9.31;80.15
12471;BME280;36499;46.484;13.832;2023-04-20T08:54:14;92897.56;;;9.25;80.89
12471;BME280;36499;46.484;13.832;2023-04-20T08:56:44;92902.22;;;9.17;80.55
12471;BME280;36499;46.484;13.832;2023-04-20T08:59:12;92906.78;;;9.21;80.40
12471;BME280;36499;46.484;13.832;2023-04-20T09:01:41;92899.25;;;9.06;82.62
12471;BME280;36499;46.484;13.832;2023-04-20T09:04:16;92912.34;;;8.87;83.32
12471;BME280;36499;46.484;13.832;2023-04-20T09:06:46;92918.56;;;8.86;82.97
12471;BME280;36499;46.484;13.832;2023-04-20T09:09:15;92924.94;;;8.90;83.29
12471;BME280;36499;46.484;13.832;2023-04-20T09:11:42;92927.28;;;8.98;82.66
12471;BME280;36499;46.484;13.832;2023-04-20T09:14:12;92921.28;;;9.04;83.04
12471;BME280;36499;46.484;13.832;2023-04-20T09:16:48;92928.28;;;9.03;83.53
12471;BME280;36499;46.484;13.832;2023-04-20T09:19:21;92926.81;;;9.21;82.35
12471;BME280;36499;46.484;13.832;2023-04-20T09:21:52;92923.00;;;9.23;82.51
12471;BME280;36499;46.484;13.832;2023-04-20T09:24:21;92926.63;;;9.15;82.83
12471;BME280;36499;46.484;13.832;2023-04-20T09:26:48;92927.78;;;9.26;83.27
12471;BME280;36499;46.484;13.832;2023-04-20T09:29:17;92921.19;;;9.17;84.38
12471;BME280;36499;46.484;13.832;2023-04-20T09:31:45;92919.03;;;9.14;84.86
12471;BME280;36499;46.484;13.832;2023-04-20T09:34:12;92918.59;;;9.17;85.14
12471;BME280;36499;46.484;13.832;2023-04-20T09:36:42;92923.75;;;9.30;84.83
12471;BME280;36499;46.484;13.832;2023-04-20T09:39:13;92925.78;;;9.28;84.85
12471;BME280;36499;46.484;13.832;2023-04-20T09:41:42;92927.81;;;9.20;83.63
12471;BME280;36499;46.484;13.832;2023-04-20T09:44:11;92930.91;;;8.97;84.07
12471;BME280;36499;46.484;13.832;2023-04-20T09:46:40;92932.91;;;8.95;84.11
12471;BME280;36499;46.484;13.832;2023-04-20T09:49:10;92928.47;;;9.02;84.93
12471;BME280;36499;46.484;13.832;2023-04-20T09:51:39;92932.69;;;9.03;84.51
12471;BME280;36499;46.484;13.832;2023-04-20T09:54:12;92931.78;;;8.78;83.49
12471;BME280;36499;46.484;13.832;2023-04-20T09:56:40;92938.97;;;8.82;85.09
12471;BME280;36499;46.484;13.832;2023-04-20T09:59:07;92934.13;;;8.92;84.43
12471;BME280;36499;46.484;13.832;2023-04-20T10:01:35;92932.59;;;8.78;84.15
12471;BME280;36499;46.484;13.832;2023-04-20T10:04:07;92938.03;;;8.63;84.59
12471;BME280;36499;46.484;13.832;2023-04-20T10:06:36;92935.66;;;8.55;84.84
12471;BME280;36499;46.484;13.832;2023-04-20T10:09:05;92942.59;;;8.68;84.55
12471;BME280;36499;46.484;13.832;2023-04-20T10:11:37;92942.38;;;8.76;85.65
12471;BME280;36499;46.484;13.832;2023-04-20T10:14:15;92943.97;;;8.77;84.77
12471;BME280;36499;46.484;13.832;2023-04-20T10:16:43;92942.31;;;8.96;84.25
12471;BME280;36499;46.484;13.832;2023-04-20T10:19:10;92947.50;;;8.96;82.78
12471;BME280;36499;46.484;13.832;2023-04-20T10:21:46;92952.94;;;8.88;82.20
12471;BME280;36499;46.484;13.832;2023-04-20T10:24:14;92946.72;;;8.95;82.19
12471;BME280;36499;46.484;13.832;2023-04-20T10:26:44;92950.72;;;8.91;82.92
12471;BME280;36499;46.484;13.832;2023-04-20T10:29:23;92950.38;;;8.81;83.03
12471;BME280;36499;46.484;13.832;2023-04-20T10:31:50;92953.50;;;8.96;83.41
12471;BME280;36499;46.484;13.832;2023-04-20T10:34:29;92948.34;;;8.90;81.95
12471;BME280;36499;46.484;13.832;2023-04-20T10:37:06;92963.75;;;8.85;81.31
12471;BME280;36499;46.484;13.832;2023-04-20T10:39:34;92956.63;;;8.67;81.15
12471;BME280;36499;46.484;13.832;2023-04-20T10:42:04;92954.00;;;8.74;80.94
12471;BME280;36499;46.484;13.832;2023-04-20T10:44:31;92949.00;;;8.72;81.15
12471;BME280;36499;46.484;13.832;2023-04-20T10:47:00;92951.59;;;8.79;81.68
12471;BME280;36499;46.484;13.832;2023-04-20T10:49:28;92943.81;;;8.65;81.96
12471;BME280;36499;46.484;13.832;2023-04-20T10:51:57;92949.22;;;8.64;82.55
12471;BME280;36499;46.484;13.832;2023-04-20T10:54:25;92942.59;;;8.75;81.65
12471;BME280;36499;46.484;13.832;2023-04-20T10:56:53;92943.81;;;8.65;82.38
12471;BME280;36499;46.484;13.832;2023-04-20T10:59:23;92943.81;;;8.65;81.90
12471;BME280;36499;46.484;13.832;2023-04-20T11:01:51;92938.00;;;8.70;81.63
12471;BME280;36499;46.484;13.832;2023-04-20T11:04:29;92939.56;;;8.84;81.83
12471;BME280;36499;46.484;13.832;2023-04-20T11:07:04;92937.78;;;8.72;81.74
12471;BME280;36499;46.484;13.832;2023-04-20T11:09:33;92934.75;;;8.88;81.21
12471;BME280;36499;46.484;13.832;2023-04-20T11:12:02;92928.34;;;8.84;81.42
12471;BME280;36499;46.484;13.832;2023-04-20T11:14:32;92934.31;;;8.91;81.94
12471;BME280;36499;46.484;13.832;2023-04-20T11:17:00;92938.88;;;9.02;81.33
12471;BME280;36499;46.484;13.832;2023-04-20T11:19:30;92933.38;;;8.85;82.56
12471;BME280;36499;46.484;13.832;2023-04-20T11:21:58;92934.31;;;8.91;82.40
12471;BME280;36499;46.484;13.832;2023-04-20T11:24:27;92935.09;;;9.04;81.15
12471;BME280;36499;46.484;13.832;2023-04-20T11:26:56;92930.69;;;9.05;81.96
12471;BME280;36499;46.484;13.832;2023-04-20T11:29:33;92940.28;;;9.04;81.16
12471;BME280;36499;46.484;13.832;2023-04-20T11:32:04;92947.09;;;8.99;81.27
12471;BME280;36499;46.484;13.832;2023-04-20T11:34:33;92944.69;;;9.04;81.42
12471;BME280;36499;46.484;13.832;2023-04-20T11:37:03;92943.91;;;8.97;82.78
12471;BME280;36499;46.484;13.832;2023-04-20T11:39:31;92940.44;;;9.09;82.10
12471;BME280;36499;46.484;13.832;2023-04-20T11:41:59;92948.69;;;9.00;82.17
12471;BME280;36499;46.484;13.832;2023-04-20T11:44:26;92945.91;;;9.01;83.20
12471;BME280;36499;46.484;13.832;2023-04-20T11:46:55;92940.84;;;9.13;83.99
12471;BME280;36499;46.484;13.832;2023-04-20T11:49:23;92940.81;;;9.20;85.06
12471;BME280;36499;46.484;13.832;2023-04-20T11:51:50;92938.84;;;9.15;85.65
12471;BME280;36499;46.484;13.832;2023-04-20T11:54:18;92933.31;;;9.36;85.18
12471;BME280;36499;46.484;13.832;2023-04-20T11:56:46;92936.13;;;9.35;84.98
12471;BME280;36499;46.484;13.832;2023-04-20T11:59:13;92931.75;;;9.29;85.16
12471;BME280;36499;46.484;13.832;2023-04-20T12:01:41;92927.16;;;9.31;84.18
12471;BME280;36499;46.484;13.832;2023-04-20T12:04:10;92931.00;;;9.22;84.30
12471;BME280;36499;46.484;13.832;2023-04-20T12:06:37;92928.22;;;9.17;84.71
12471;BME280;36499;46.484;13.832;2023-04-20T12:09:04;92934.25;;;9.10;84.98
12471;BME280;36499;46.484;13.832;2023-04-20T12:11:31;92936.53;;;8.87;85.36
12471;BME280;36499;46.484;13.832;2023-04-20T12:13:58;92940.56;;;8.90;84.78
12471;BME280;36499;46.484;13.832;2023-04-20T12:16:26;92932.94;;;8.88;85.04
12471;BME280;36499;46.484;13.832;2023-04-20T12:18:53;92935.56;;;8.82;86.34
12471;BME280;36499;46.484;13.832;2023-04-20T12:21:22;92939.34;;;8.92;86.18
12471;BME280;36499;46.484;13.832;2023-04-20T12:23:49;92940.94;;;8.87;85.12
12471;BME280;36499;46.484;13.832;2023-04-20T12:26:17;92938.38;;;8.80;85.15
12471;BME280;36499;46.484;13.832;2023-04-20T12:28:44;92941.00;;;8.74;86.12
12471;BME280;36499;46.484;13.832;2023-04-20T12:31:11;92947.53;;;8.83;87.13
12471;BME280;36499;46.484;13.832;2023-04-20T12:33:38;92944.31;;;9.00;85.61
12471;BME280;36499;46.484;13.832;2023-04-20T12:36:05;92949.91;;;8.97;85.07
12471;BME280;36499;46.484;13.832;2023-04-20T12:38:34;92956.69;;;9.05;84.73
12471;BME280;36499;46.484;13.832;2023-04-20T12:41:01;92944.88;;;9.09;83.84
12471;BME280;36499;46.484;13.832;2023-04-20T12:43:29;92943.09;;;9.03;83.94
12471;BME280;36499;46.484;13.832;2023-04-20T12:45:56;92957.34;;;8.94;84.79
12471;BME280;36499;46.484;13.832;2023-04-20T12:48:23;92950.69;;;8.98;84.03
12471;BME280;36499;46.484;13.832;2023-04-20T12:50:50;92959.88;;;9.07;83.52
12471;BME280;36499;46.484;13.832;2023-04-20T12:53:17;92958.41;;;9.18;83.28
12471;BME280;36499;46.484;13.832;2023-04-20T12:55:45;92964.25;;;9.13;83.41
12471;BME280;36499;46.484;13.832;2023-04-20T12:58:12;92952.59;;;9.22;83.51
12471;BME280;36499;46.484;13.832;2023-04-20T13:00:40;92953.41;;;9.23;83.13
12471;BME280;36499;46.484;13.832;2023-04-20T13:03:08;92953.81;;;9.20;82.46